Tiempo atmosférico en la estación meteorológica de Tornavacas, Cáceres (991 m.)



Fecha
DESCASC
Temp. máxima en grados centígrados (hora)
DESCASC
Temp. mínima en grados centígrados (hora)
DESCASC
Temp. media en grados centígrados
DESCASC
Racha de viento máxima en m/sg (hora)
DESCASC
Velocidad máxima media en intervalos de 10 minutos(hora)
DESCASC
Precipitaciones diarias en mm
DESCASC
Precipitaciones de 00:00 a 06:00 en mm
DESCASC
Precipitaciones de 06:00 a 12:00 en mm
DESCASC
Precipitaciones de 12:00 a 18:00 en mm
DESCASC
Precipitaciones de 18:00 a 24:00 en mm
DESCASC
05-04-2020 14.3 (14:20) 8 (03:30) 11.2 13.06 (08:00) 7.5 (08:00) 4.8 0 0 0 4.8
04-04-2020 15.2 (14:40) 6.4 (08:50) 10.8 14.17 (15:40) 5.83 (21:30) 0 0 0 0 0
03-04-2020 17 (17:40) 5 (08:00) 11 9.72 (18:20) 6.11 (09:40) 0 0 0 0 0
02-04-2020 12.5 (17:20) 2.6 (00:00) 7.5 10.28 (13:40) 8.06 (07:30) 0.8 0 0 0 0.8
01-04-2020 10.4 (16:30) 2.4 (00:00) 6.4 8.33 (15:10) 5.83 (15:30) 1.2 1.2 0 0 0
31-03-2020 8.9 (18:40) 0.8 (00:00) 4.8 13.33 (04:00) 9.44 (04:00) 2 0.2 0.2 0.2 1.4
30-03-2020 10.2 (01:50) 0.7 (00:00) 5.4 15 (14:20) 9.17 (05:30) 2.4 0 1 0.4 1
29-03-2020 16.8 (16:20) 5.3 (00:00) 11 8.89 (13:20) 6.11 (09:50) 0 0 0 0 0
28-03-2020 15.2 (15:50) 2.2 (00:00) 8.7 11.67 (05:20) 6.67 (04:30) 0 0 0 0 0
27-03-2020 10.6 (18:00) 2.2 (00:00) 6.4 11.67 (07:50) 7.78 (06:20) 0 0 0 0 0
26-03-2020 14.3 (16:20) 5.8 (00:00) 10.1 13.06 (10:00) 8.61 (05:40) 0 0 0 0 0
25-03-2020 16.2 (17:00) 4.8 (00:00) 10.5 10 (18:00) 6.11 (18:40) 4.2 0 0 0 4.2
24-03-2020 14.4 (17:10) 7.3 (00:00) 10.8 10.56 (10:50) 5.28 (05:50) 0.2 0 0.2 0 0
23-03-2020 13.5 (17:10) 6.4 (00:00) 10 9.17 (15:20) 6.39 (14:10) 0 0 0 0 0
22-03-2020 12 (15:00) 3.4 (00:00) 7.7 8.89 (08:10) 6.11 (07:30) 4.6 0 0 4.4 0.2
21-03-2020 11.4 (00:50) 3.4 (00:00) 7.4 11.67 (01:20) 5.83 (09:30) 16 8 8 0 0
20-03-2020 11.6 (17:00) 7.8 (00:00) 9.7 10 (19:40) 6.39 (06:20) 4.6 0 0.2 0 4.4
19-03-2020 13.5 (14:10) 8.3 (00:00) 10.9 7.78 (03:20) 5.56 (02:50) 0 0 0 0 0
18-03-2020 18.5 (15:40) 9.8 (00:00) 14.2 12.78 (06:10) 8.61 (01:40) 0 0 0 0 0
17-03-2020 13.3 (16:20) 0.8 (00:00) 7.1 15 (06:10) 10.28 (06:10) 0 0 0 0 0
16-03-2020 3.5 (00:00) 0.8 (00:00) 2.2 13.89 (16:40) 8.06 (15:50) 23.4 1.2 2.6 12.4 7.2
15-03-2020 15.5 (14:40) 3.3 (00:00) 9.4 16.11 (18:00) 9.17 (16:10) 0.4 0 0 0 0.4
14-03-2020 19.8 (17:20) 7.9 (00:00) 13.8 15.28 (06:20) 8.89 (06:40) 0 0 0 0 0
13-03-2020 18 (14:50) 9.9 (08:20) 13.9 14.72 (08:20) 10.28 (08:20) 0 0 0 0 0
12-03-2020 23.1 (14:20) 13.8 (00:00) 18.5 10.83 (15:50) 6.67 (16:40) 0 0 0 0 0
11-03-2020 22.4 (15:10) 13.5 (00:00) 17.9 8.06 (02:20) 5.56 (01:10) 0 0 0 0 0
10-03-2020 21.2 (17:20) 8.2 (00:00) 14.7 12.78 (00:40) 8.61 (00:40) 0 0 0 0 0
09-03-2020 15.8 (13:10) 4.5 (00:00) 10.2 17.78 (09:10) 13.06 (09:20) 0 0 0 0 0

Gráficas

Temp. máximas Temp. mínimas Temp. medias Precipitaciones Rachas de viento máximas Velocidades máximas media en intervalos de 10 minutos

Datos horarios

Fecha y hora oficial Temperatura (ºC) Velocidad del viento (km/h) Dirección del viento Racha (km/h) Dirección de racha Precipitación (mm) Presión (hPa) Tendencia (hPa) Humedad (%)
2020-04-07 23:00:00 10.6 5 Este 6 Este 0 -- -- 94
2020-04-07 22:00:00 11.6 3 Este 9 Sudoeste 0.4 -- -- 95
2020-04-07 21:00:00 12.2 6 Sudoeste 15 Sudoeste 0 -- -- 95
2020-04-07 20:00:00 12.5 9 Sudoeste 25 Sudoeste 0 -- -- 94
2020-04-07 19:00:00 13.3 18 Sudoeste 30 Sudoeste 0 -- -- 90
2020-04-07 18:00:00 16.7 20 Sudoeste 29 Sudoeste 0 -- -- 70
2020-04-07 17:00:00 14.6 15 Sudoeste 38 Sudoeste 0 -- -- 80
2020-04-07 16:00:00 14.6 20 Sudoeste 32 Sudoeste 0 -- -- 80
2020-04-07 15:00:00 13.9 16 Sudoeste 27 Sudoeste 0 -- -- 80
2020-04-07 14:00:00 12.5 13 Sudoeste 22 Sudoeste 0 -- -- 89
2020-04-07 13:00:00 12.5 12 Sudoeste 17 Sudoeste 0 -- -- 89
2020-04-07 12:00:00 12.4 8 Sudoeste 15 Sudoeste 0.2 -- -- 89
2020-04-07 11:00:00 11.2 0 Calma 10 Sudoeste 0.2 -- -- 90
2020-04-07 10:00:00 10.6 5 Oeste 8 Sudoeste 0 -- -- 90
2020-04-07 09:00:00 10.1 2 Sudeste 10 Sudeste 0 -- -- 89
2020-04-07 08:00:00 9.5 6 Sudeste 12 Sudeste 0 -- -- 89
2020-04-07 07:00:00 9.3 5 Nordeste 10 Sudeste 0 -- -- 90
2020-04-07 06:00:00 9.1 4 Este 8 Nordeste 0 -- -- 95
2020-04-07 05:00:00 9.3 4 Este 6 Sudeste 0 -- -- 95
2020-04-07 04:00:00 9.7 0 Calma 14 Sur 0 -- -- 94
2020-04-07 03:00:00 10 6 Sudeste 12 Sudoeste 0 -- -- 94
2020-04-07 02:00:00 9.8 0 Calma 8 Sur 0 -- -- 94
2020-04-07 01:00:00 10.1 4 Sur 12 Sur 0 -- -- 93
2020-04-07 00:00:00 10.3 4 Sudeste 14 Sur 0 -- -- 92
2020-04-06 23:00:00 10.4 8 Sur 13 Sudoeste 0.2 -- -- 95
2020-04-06 22:00:00 10.5 3 Sudoeste 6 Sudoeste 0.2 -- -- 95
2020-04-06 21:00:00 10.5 2 Sudoeste 11 Sudoeste 0.4 -- -- 95
2020-04-06 20:00:00 10.6 6 Sudoeste 15 Sudoeste 0.2 -- -- 94
2020-04-06 19:00:00 10.8 10 Sudoeste 15 Sudoeste 0.2 -- -- 91
2020-04-06 18:00:00 11.5 12 Sudoeste 21 Sudoeste 0 -- -- 85
2020-04-06 17:00:00 11.5 14 Sudoeste 24 Oeste 0 -- -- 84
2020-04-06 16:00:00 13.1 13 Oeste 30 Sudoeste 0 -- -- 73
2020-04-06 15:00:00 12 23 Sudoeste 31 Sudoeste 0 -- -- 82
2020-04-06 14:00:00 12 13 Sudoeste 25 Sudoeste 0 -- -- 84
2020-04-06 13:00:00 11.3 20 Sudoeste 27 Sudoeste 0 -- -- 93
2020-04-06 12:00:00 10.4 13 Sudoeste 19 Sudoeste 0 -- -- 98
2020-04-06 11:00:00 9 14 Sudoeste 19 Sudoeste 0.2 -- -- 99
2020-04-06 10:00:00 9 13 Sudoeste 24 Sudoeste 0 -- -- 99
2020-04-06 09:00:00 9.1 19 Sudoeste 29 Sudoeste 0 -- -- 99
2020-04-06 08:00:00 9.3 16 Sudoeste 22 Sudoeste 0 -- -- 99
2020-04-06 07:00:00 9.6 16 Sudoeste 27 Sudoeste 0 -- -- 99
2020-04-06 06:00:00 9.9 16 Sudoeste 27 Sudoeste 0.2 -- -- 99
2020-04-06 05:00:00 10.2 13 Sudoeste 22 Sudoeste 0 -- -- 99
2020-04-06 04:00:00 10.1 15 Sudoeste 27 Sudoeste 0 -- -- 98
2020-04-06 03:00:00 10.4 18 Sudoeste 28 Sudoeste 0 -- -- 98
2020-04-06 02:00:00 10.6 18 Sudoeste 35 Sudoeste 0.4 -- -- 98
2020-04-06 01:00:00 10.7 21 Sudoeste 32 Sudoeste 1.8 -- -- 98
2020-04-06 00:00:00 10.5 13 Sudoeste 32 Sudoeste 0.4 -- -- 97
2020-04-05 23:00:00 10.6 21 Sudoeste 35 Sudoeste 1.2 -- -- 97
2020-04-05 22:00:00 10.5 17 Sudoeste 28 Sudoeste 1.8 -- -- 95
2020-04-05 21:00:00 11.2 14 Sudoeste 27 Sudoeste 1 -- -- 89
2020-04-05 20:00:00 11.6 12 Sudoeste 37 Oeste 0.2 -- -- 85
2020-04-05 19:00:00 12.2 14 Sudoeste 33 Oeste 0.2 -- -- 80
2020-04-05 18:00:00 12.3 11 Sur 28 Oeste 0 -- -- 79
2020-04-05 17:00:00 12.8 15 Sudoeste 30 Oeste 0 -- -- 72
2020-04-05 16:00:00 13.6 15 Sudoeste 32 Sudoeste 0 -- -- 66
2020-04-05 15:00:00 14.1 19 Sudoeste 35 Oeste 0 -- -- 64
2020-04-05 14:00:00 13.7 21 Sudoeste 42 Oeste 0 -- -- 62
2020-04-05 13:00:00 13.3 23 Sudoeste 42 Sudoeste 0 -- -- 57
2020-04-05 12:00:00 12.1 24 Sudoeste 44 Oeste 0 -- -- 61
2020-04-05 11:00:00 11.2 25 Sudoeste 40 Oeste 0 -- -- 66
2020-04-05 10:00:00 10.7 16 Oeste 39 Oeste 0 -- -- 66
2020-04-05 09:00:00 10.5 18 Sudoeste 43 Oeste 0 -- -- 67
2020-04-05 08:00:00 10.3 27 Oeste 47 Oeste 0 -- -- 67
2020-04-05 07:00:00 10 18 Oeste 38 Oeste 0 -- -- 70
2020-04-05 06:00:00 9.7 18 Sudoeste 37 Oeste 0 -- -- 75
2020-04-05 05:00:00 9.4 12 Sudoeste 26 Sur 0 -- -- 78
2020-04-05 04:00:00 8.3 12 Sudoeste 20 Oeste 0 -- -- 86
2020-04-05 03:00:00 8.1 10 Sudeste 25 Oeste 0 -- -- 85
2020-04-05 02:00:00 9.4 16 Oeste 28 Oeste 0 -- -- 73
2020-04-05 01:00:00 9.7 18 Oeste 27 Oeste 0 -- -- 70
2020-04-05 00:00:00 10.1 15 Sudoeste 23 Oeste 0 -- -- 66
2020-04-04 23:00:00 10.5 12 Sudoeste 28 Oeste 0 -- -- 65
2020-04-04 22:00:00 11.4 15 Sudoeste 37 Oeste 0 -- -- 59
2020-04-04 21:00:00 12 12 Sudoeste 30 Sur 0 -- -- 58
2020-04-04 20:00:00 12.5 15 Sudoeste 35 Oeste 0 -- -- 57
2020-04-04 19:00:00 13 16 Oeste 39 Oeste 0 -- -- 52
2020-04-04 18:00:00 13.7 13 Sudoeste 32 Oeste 0 -- -- 51
2020-04-04 17:00:00 14.4 15 Sudoeste 48 Oeste 0 -- -- 46
2020-04-04 16:00:00 14.1 12 Sudoeste 51 Sudoeste 0 -- -- 43
2020-04-04 15:00:00 15 6 Sudeste 22 Sudoeste 0 -- -- 43
2020-04-04 14:00:00 14.2 11 Este 22 Este 0 -- -- 43
2020-04-04 13:00:00 13.6 10 Este 49 Este 0 -- -- 45
2020-04-04 12:00:00 12.8 18 Este 37 Este 0 -- -- 45
2020-04-04 11:00:00 13 9 Sudoeste 27 Sudoeste 0 -- -- 44
2020-04-04 10:00:00 8.7 4 Sur 17 Este 0 -- -- 60
2020-04-04 09:00:00 6.5 9 Este 15 Este 0 -- -- 66
2020-04-04 08:00:00 6.9 10 Nordeste 17 Nordeste 0 -- -- 63
2020-04-04 07:00:00 7.1 13 Nordeste 19 Nordeste 0 -- -- 61
2020-04-04 06:00:00 6.8 6 Este 19 Nordeste 0 -- -- 65
2020-04-04 05:00:00 6.9 8 Este 19 Nordeste 0 -- -- 66
2020-04-04 04:00:00 7.6 9 Sudeste 15 Este 0 -- -- 65
2020-04-04 03:00:00 6.8 8 Este 14 Este 0 -- -- 70
2020-04-04 02:00:00 6.9 8 Este 14 Nordeste 0 -- -- 66
2020-04-04 01:00:00 8 5 Este 12 Sudeste 0 -- -- 63
2020-04-04 00:00:00 8.6 8 Sudeste 13 Sudeste 0 -- -- 69
2020-04-03 23:00:00 8.4 8 Este 12 Este 0 -- -- 70
2020-04-03 22:00:00 8.8 9 Este 12 Este 0 -- -- 69
2020-04-03 21:00:00 11.4 4 Sudeste 18 Sudoeste 0 -- -- 59
2020-04-03 20:00:00 14.3 13 Sudoeste 23 Sudoeste 0 -- -- 51
2020-04-03 19:00:00 15.7 19 Sudoeste 35 Sudoeste 0 -- -- 48
2020-04-03 18:00:00 16.6 16 Sudoeste 28 Sudoeste 0 -- -- 49
2020-04-03 17:00:00 16 17 Sudoeste 27 Sur 0 -- -- 50
2020-04-03 16:00:00 16.1 17 Sudoeste 27 Oeste 0 -- -- 49
2020-04-03 15:00:00 15.1 15 Sudoeste 26 Sudoeste 0 -- -- 51
2020-04-03 14:00:00 14.3 14 Sudoeste 24 Sudoeste 0 -- -- 49
2020-04-03 13:00:00 13.7 7 Noroeste 20 Nordeste 0 -- -- 48
2020-04-03 12:00:00 11.8 13 Nordeste 26 Nordeste 0 -- -- 54
2020-04-03 11:00:00 10.2 15 Nordeste 27 Este 0 -- -- 55
2020-04-03 10:00:00 6.8 15 Nordeste 31 Nordeste 0 -- -- 66
2020-04-03 09:00:00 5.6 17 Este 31 Este 0 -- -- 67
2020-04-03 08:00:00 5 17 Este 28 Este 0 -- -- 69
2020-04-03 07:00:00 6.3 15 Este 25 Este 0 -- -- 61
2020-04-03 06:00:00 6.1 16 Este 23 Nordeste 0 -- -- 66
2020-04-03 05:00:00 5.4 16 Nordeste 28 Este 0 -- -- 72
2020-04-03 04:00:00 6.8 18 Este 31 Este 0 -- -- 70
2020-04-03 03:00:00 6.8 19 Este 33 Este 0 -- -- 76
2020-04-03 02:00:00 7.2 15 Este 28 Este 0 -- -- 72
2020-04-03 01:00:00 7.1 18 Este 32 Este 0 -- -- 75
2020-04-03 00:00:00 6.2 18 Nordeste 25 Nordeste 0 -- -- 81
2020-04-02 23:00:00 7.6 9 Nordeste 24 Este 0 -- -- 78
2020-04-02 22:00:00 8.4 17 Este 33 Este 0 -- -- 74
2020-04-02 21:00:00 8.2 17 Este 29 Este 0 -- -- 73
2020-04-02 20:00:00 8.8 16 Este 29 Nordeste 0.8 -- -- 77
2020-04-02 19:00:00 10.8 16 Este 33 Nordeste 0 -- -- 62
2020-04-02 18:00:00 12.2 18 Este 35 Este 0 -- -- 57
2020-04-02 17:00:00 11.9 14 Nordeste 31 Este 0 -- -- 54
2020-04-02 16:00:00 12.1 15 Este 30 Este 0 -- -- 54
2020-04-02 15:00:00 10.8 15 Este 35 Este 0 -- -- 57
2020-04-02 14:00:00 10.8 14 Nordeste 37 Nordeste 0 -- -- 59
2020-04-02 13:00:00 10.8 15 Este 28 Nordeste 0 -- -- 57
2020-04-02 12:00:00 9.3 10 Nordeste 28 Nordeste 0 -- -- 60
2020-04-02 11:00:00 7 18 Este 32 Nordeste 0 -- -- 64
2020-04-02 10:00:00 4.2 23 Este 34 Este 0 -- -- 68
2020-04-02 09:00:00 3.9 23 Este 37 Este 0 -- -- 68
2020-04-02 08:00:00 3.2 23 Nordeste 36 Nordeste 0 -- -- 70
2020-04-02 07:00:00 5.1 16 Este 31 Nordeste 0 -- -- 62
2020-04-02 06:00:00 4.3 13 Este 32 Este 0 -- -- 65
2020-04-02 05:00:00 5.1 16 Este 24 Nordeste 0 -- -- 65
2020-04-02 04:00:00 3.7 18 Nordeste 27 Este 0 -- -- 71
2020-04-02 03:00:00 5 15 Este 34 Este 0 -- -- 68
2020-04-02 02:00:00 4.7 20 Nordeste 32 Nordeste 0 -- -- 67
2020-04-02 01:00:00 5.3 17 Este 25 Este 0 -- -- 65
2020-04-02 00:00:00 3.5 9 Nordeste 13 Nordeste 0 -- -- 76
2020-04-01 23:00:00 4.2 8 Este 13 Sudeste 0 -- -- 74
2020-04-01 22:00:00 4.6 6 Este 15 Sudeste 0 -- -- 77
2020-04-01 21:00:00 6.8 6 Sudeste 18 Oeste 0 -- -- 65
2020-04-01 20:00:00 8.4 9 Oeste 16 Sudoeste 0 -- -- 60
2020-04-01 19:00:00 9.3 6 Oeste 20 Oeste 0 -- -- 59
2020-04-01 18:00:00 9.3 14 Oeste 23 Oeste 0 -- -- 55
2020-04-01 17:00:00 9 14 Sudoeste 24 Oeste 0 -- -- 56
2020-04-01 16:00:00 9.9 18 Oeste 30 Sudoeste 0 -- -- 57
2020-04-01 15:00:00 9.1 12 Oeste 24 Sudoeste 0 -- -- 61
2020-04-01 14:00:00 6.4 8 Sudoeste 21 Sudoeste 0 -- -- 73
2020-04-01 13:00:00 5.2 13 Sudoeste 22 Oeste 0 -- -- 84
2020-04-01 12:00:00 4.7 2 Sur 13 Sudoeste 0 -- -- 86
2020-04-01 11:00:00 3.8 0 Calma 7 Oeste 0 -- -- 89
2020-04-01 10:00:00 3 3 Sur 8 Sudoeste 0 -- -- 93
2020-04-01 09:00:00 2.8 4 Noroeste 11 Sudeste 0 -- -- 97
2020-04-01 08:00:00 2.5 0 Calma 16 Sudoeste 0 -- -- 97
2020-04-01 07:00:00 3.1 0 Calma 6 Sudoeste 0 -- -- 98
2020-04-01 06:00:00 3 0 Calma 9 Oeste 0 -- -- 97
2020-04-01 05:00:00 3.4 0 Calma 10 Sudoeste 0 -- -- 97
2020-04-01 04:00:00 3.5 5 Sudoeste 26 Sudoeste 0 -- -- 96
2020-04-01 03:00:00 4.7 15 Sudoeste 27 Sudoeste 0.8 -- -- 93
2020-04-01 02:00:00 5.7 14 Sudoeste 24 Sudoeste 0.4 -- -- 91
2020-04-01 01:00:00 6.5 9 Sudoeste 21 Sudoeste 0 -- -- 80
2020-04-01 00:00:00 6.2 10 Sudoeste 17 Sudoeste 0 -- -- 83
2020-03-31 23:00:00 5.4 4 Sur 8 Sudeste 0 -- -- 90
2020-03-31 22:00:00 6.1 2 Sur 10 Sudeste 0 -- -- 89
2020-03-31 21:00:00 6.7 4 Nordeste 8 Sudeste 0.4 -- -- 89
2020-03-31 20:00:00 7.3 4 Noroeste 19 Sudoeste 1 -- -- 85
2020-03-31 19:00:00 8.6 9 Sudoeste 24 Sudoeste 0 -- -- 77
2020-03-31 18:00:00 8 12 Sur 23 Sudoeste 0 -- -- 82
2020-03-31 17:00:00 8.5 15 Sudoeste 25 Sudoeste 0 -- -- 75
2020-03-31 16:00:00 8.4 9 Sudoeste 14 Oeste 0 -- -- 77
2020-03-31 15:00:00 6.9 5 Sudoeste 10 Oeste 0 -- -- 81
2020-03-31 14:00:00 5.7 3 Sudoeste 13 Sudoeste 0.2 -- -- 85
2020-03-31 13:00:00 5.1 2 Noroeste 7 Sudoeste 0 -- -- 85
2020-03-31 12:00:00 4.5 8 Sudoeste 16 Sudoeste 0 -- -- 86
2020-03-31 11:00:00 3.9 3 Oeste 27 Este 0 -- -- 89
2020-03-31 10:00:00 3.8 20 Este 31 Este 0.2 -- -- 81
2020-03-31 09:00:00 3.1 16 Este 31 Este 0 -- -- 82
2020-03-31 08:00:00 2.4 19 Este 32 Nordeste 0 -- -- 79
2020-03-31 07:00:00 2.9 18 Nordeste 44 Este 0 -- -- 76
2020-03-31 06:00:00 1.4 26 Este 45 Este 0 -- -- 79
2020-03-31 05:00:00 1.3 28 Este 46 Este 0 -- -- 80
2020-03-31 04:00:00 1.1 34 Este 48 Este 0 -- -- 80
2020-03-31 03:00:00 1 21 Este 40 Nordeste 0 -- -- 82
2020-03-31 02:00:00 1.1 23 Este 40 Nordeste 0 -- -- 80
2020-03-31 01:00:00 0.9 24 Este 41 Nordeste 0.2 -- -- 84
2020-03-31 00:00:00 0.8 19 Este 39 Nordeste 0 -- -- 86
2020-03-30 23:00:00 0.8 22 Este 35 Este 0.2 -- -- 87
2020-03-30 22:00:00 1 22 Este 38 Este 0 -- -- 85
2020-03-30 21:00:00 0.7 21 Este 38 Nordeste 0.2 -- -- 90
2020-03-30 20:00:00 0.9 20 Este 42 Este 0.4 -- -- 88
2020-03-30 19:00:00 1.4 24 Este 37 Este 0.2 -- -- 85
2020-03-30 18:00:00 1.6 19 Nordeste 38 Este 0.2 -- -- 85
2020-03-30 17:00:00 2.8 18 Este 42 Este 0 -- -- 81
2020-03-30 16:00:00 2.6 24 Este 41 Este 0 -- -- 80
2020-03-30 15:00:00 3.2 28 Nordeste 54 Nordeste 0 -- -- 79
2020-03-30 14:00:00 3.4 28 Nordeste 49 Nordeste 0 -- -- 76
2020-03-30 13:00:00 3 20 Este 41 Este 0.2 -- -- 81
2020-03-30 12:00:00 2.4 22 Este 43 Este 0.2 -- -- 82
2020-03-30 11:00:00 2.6 27 Este 48 Este 0.2 -- -- 83
2020-03-30 10:00:00 2.6 20 Nordeste 41 Nordeste 0.6 -- -- 87
2020-03-30 09:00:00 4.4 26 Este 42 Nordeste 0 -- -- 79
2020-03-30 08:00:00 4.5 19 Nordeste 36 Nordeste 0 -- -- 80
2020-03-30 07:00:00 5.1 21 Nordeste 37 Este 0 -- -- 80
2020-03-30 06:00:00 6.4 30 Este 44 Este 0 -- -- 72
2020-03-30 05:00:00 7.9 22 Nordeste 35 Nordeste 0 -- -- 68
2020-03-30 04:00:00 9.5 14 Este 27 Este 0 -- -- 61
2020-03-30 03:00:00 8.9 21 Nordeste 31 Nordeste 0 -- -- 63
2020-03-30 02:00:00 9.3 14 Nordeste 24 Nordeste 0 -- -- 63
2020-03-30 01:00:00 9.6 10 Nordeste 15 Nordeste 0 -- -- 61
2020-03-30 00:00:00 8.9 7 Sudeste 9 Sudeste 0 -- -- 67
2020-03-29 23:00:00 8.9 9 Sudeste 11 Este 0 -- -- 66
2020-03-29 22:00:00 10.4 3 Sur 11 Sudeste 0 -- -- 59
2020-03-29 21:00:00 11.1 3 Sudeste 14 Sudoeste 0 -- -- 58
2020-03-29 20:00:00 12.2 10 Sudoeste 21 Sudoeste 0 -- -- 52
2020-03-29 19:00:00 12.8 14 Sudoeste 24 Sudoeste 0 -- -- 50
2020-03-29 18:00:00 14 17 Sudoeste 29 Oeste 0 -- -- 48
2020-03-29 17:00:00 16.1 18 Sudoeste 31 Sudoeste 0 -- -- 43
2020-03-29 16:00:00 16 15 Sudoeste 28 Sudoeste 0 -- -- 44
2020-03-29 15:00:00 15 19 Sudoeste 27 Sudoeste 0 -- -- 44
2020-03-29 14:00:00 15 16 Sudoeste 32 Sudoeste 0 -- -- 41
2020-03-29 13:00:00 13.8 7 Nordeste 22 Este 0 -- -- 41
2020-03-29 12:00:00 12 15 Nordeste 28 Nordeste 0 -- -- 48
2020-03-29 11:00:00 9.8 18 Nordeste 31 Este 0 -- -- 52
2020-03-29 10:00:00 8.2 21 Este 31 Este 0 -- -- 53
2020-03-29 09:00:00 7.3 14 Este 22 Este 0 -- -- 56
2020-03-29 08:00:00 6.9 12 Este 22 Nordeste 0 -- -- 56
2020-03-29 07:00:00 6.1 15 Nordeste 24 Nordeste 0 -- -- 60
2020-03-29 06:00:00 6.3 16 Nordeste 22 Nordeste 0 -- -- 59
2020-03-29 05:00:00 5.8 11 Nordeste 21 Nordeste 0 -- -- 61
2020-03-29 03:00:00 6 10 Sudeste 13 Sudeste 0 -- -- 62
2020-03-29 01:00:00 7 5 Este 23 Nordeste 0 -- -- 59
2020-03-29 00:00:00 7.2 14 Nordeste 25 Nordeste 0 -- -- 59
2020-03-28 23:00:00 7 7 Este 15 Nordeste 0 -- -- 60
2020-03-28 22:00:00 6.8 7 Sudeste 12 Sudeste 0 -- -- 57
2020-03-28 21:00:00 6.7 9 Este 13 Este 0 -- -- 59
2020-03-28 20:00:00 8.9 6 Sudeste 10 Oeste 0 -- -- 49
2020-03-28 19:00:00 11.3 11 Oeste 24 Sudoeste 0 -- -- 42
2020-03-28 18:00:00 13.4 10 Sudoeste 27 Oeste 0 -- -- 38
2020-03-28 17:00:00 14.2 14 Sudoeste 32 Oeste 0 -- -- 41
2020-03-28 16:00:00 15 16 Oeste 32 Oeste 0 -- -- 42
2020-03-28 15:00:00 14.4 20 Oeste 32 Oeste 0 -- -- 45
2020-03-28 14:00:00 14.4 14 Oeste 26 Sudoeste 0 -- -- 41
2020-03-28 13:00:00 13.4 12 Sudoeste 19 Oeste 0 -- -- 42
2020-03-28 12:00:00 11.2 13 Sudoeste 18 Sudoeste 0 -- -- 43
2020-03-28 11:00:00 10.1 13 Nordeste 23 Este 0 -- -- 45
2020-03-28 10:00:00 7.8 13 Este 29 Nordeste 0 -- -- 52
2020-03-28 09:00:00 4.8 16 Este 29 Este 0 -- -- 60
2020-03-28 08:00:00 2.8 11 Nordeste 20 Norte 0 -- -- 68
2020-03-28 07:00:00 4 12 Este 26 Este 0 -- -- 61
2020-03-28 06:00:00 4 15 Este 42 Este 0 -- -- 62
2020-03-28 05:00:00 3.8 22 Este 37 Este 0 -- -- 63
2020-03-28 04:00:00 2.5 17 Norte 26 Este 0 -- -- 67
2020-03-28 03:00:00 3.6 14 Este 23 Nordeste 0 -- -- 63
2020-03-28 02:00:00 2.7 13 Nordeste 24 Nordeste 0 -- -- 65
2020-03-28 01:00:00 2.8 13 Nordeste 20 Nordeste 0 -- -- 65
2020-03-28 00:00:00 2.9 9 Nordeste 17 Nordeste 0 -- -- 65
2020-03-27 23:00:00 3.4 10 Nordeste 19 Este 0 -- -- 65
2020-03-27 22:00:00 5.4 14 Este 23 Este 0 -- -- 57
2020-03-27 21:00:00 4.9 10 Este 16 Nordeste 0 -- -- 59
2020-03-27 20:00:00 5.5 5 Sudeste 16 Sudoeste 0 -- -- 67
2020-03-27 19:00:00 8.8 6 Noroeste 24 Nordeste 0 -- -- 54
2020-03-27 18:00:00 10.6 7 Noroeste 13 Norte 0 -- -- 46
2020-03-27 17:00:00 9.8 4 Noroeste 20 Oeste 0 -- -- 52
2020-03-27 16:00:00 7.8 15 Sudoeste 30 Sudoeste 0 -- -- 61
2020-03-27 15:00:00 9 19 Sudoeste 31 Sudoeste 0 -- -- 57
2020-03-27 14:00:00 9.5 23 Sudoeste 38 Sudoeste 0 -- -- 56
2020-03-27 13:00:00 9.8 10 Este 25 Nordeste 0 -- -- 41
2020-03-27 12:00:00 8.9 11 Nordeste 25 Nordeste 0 -- -- 40
2020-03-27 11:00:00 7.9 14 Nordeste 32 Nordeste 0 -- -- 52
2020-03-27 10:00:00 5.4 21 Este 33 Este 0 -- -- 60
2020-03-27 09:00:00 3.1 21 Este 39 Este 0 -- -- 67
2020-03-27 08:00:00 2.4 23 Este 42 Nordeste 0 -- -- 71
2020-03-27 07:00:00 2.8 22 Este 39 Este 0 -- -- 73
2020-03-27 06:00:00 3.3 26 Nordeste 37 Este 0 -- -- 72
2020-03-27 05:00:00 4.2 24 Nordeste 35 Nordeste 0 -- -- 69
2020-03-27 04:00:00 4.6 22 Nordeste 35 Nordeste 0 -- -- 65
2020-03-27 03:00:00 5.6 9 Sudeste 15 Sudeste 0 -- -- 63
2020-03-27 02:00:00 5.5 6 Sudeste 18 Sudeste 0 -- -- 64
2020-03-27 01:00:00 5.3 9 Este 12 Sudeste 0 -- -- 60
2020-03-27 00:00:00 6.8 6 Sudeste 25 Este 0 -- -- 50
2020-03-26 23:00:00 7.4 9 Nordeste 25 Nordeste 0 -- -- 51
2020-03-26 22:00:00 9 12 Este 23 Nordeste 0 -- -- 47
2020-03-26 21:00:00 7.8 13 Nordeste 22 Nordeste 0 -- -- 53
2020-03-26 20:00:00 10.3 15 Este 24 Este 0 -- -- 45
2020-03-26 19:00:00 12.5 16 Este 30 Este 0 -- -- 40
2020-03-26 18:00:00 13.3 22 Nordeste 39 Nordeste 0 -- -- 38
2020-03-26 17:00:00 13.8 23 Nordeste 37 Nordeste 0 -- -- 37
2020-03-26 16:00:00 14 21 Nordeste 37 Este 0 -- -- 37
2020-03-26 15:00:00 13.9 22 Este 40 Nordeste 0 -- -- 29
2020-03-26 14:00:00 13.6 20 Nordeste 37 Sudeste 0 -- -- 24
2020-03-26 13:00:00 13.1 19 Este 35 Este 0 -- -- 32
2020-03-26 12:00:00 12.6 17 Nordeste 36 Nordeste 0 -- -- 27
2020-03-26 11:00:00 11.1 23 Este 43 Este 0 -- -- 24
2020-03-26 10:00:00 9.9 27 Este 47 Este 0 -- -- 27
2020-03-26 09:00:00 8.5 18 Este 33 Este 0 -- -- 31
2020-03-26 08:00:00 7.3 15 Este 36 Nordeste 0 -- -- 31
2020-03-26 07:00:00 6.1 21 Nordeste 42 Este 0 -- -- 52
2020-03-26 06:00:00 9.1 30 Este 39 Este 0 -- -- 32
2020-03-26 05:00:00 7.8 18 Nordeste 26 Nordeste 0 -- -- 49
2020-03-26 04:00:00 8.7 17 Este 29 Este 0 -- -- 55
2020-03-26 03:00:00 8.7 18 Este 27 Nordeste 0 -- -- 58
2020-03-26 02:00:00 9.2 16 Este 39 Norte 0 -- -- 52
2020-03-26 01:00:00 10.5 23 Nordeste 44 Norte 0 -- -- 48
2020-03-26 00:00:00 10.5 10 Norte 31 Norte 0 -- -- 67
2020-03-25 23:00:00 8.4 4 Este 12 Sudeste 0 -- -- 86
2020-03-25 22:00:00 7.8 8 Este 14 Nordeste 0 -- -- 86
2020-03-25 21:00:00 8.3 5 Sudoeste 28 Este 2.4 -- -- 84
2020-03-25 20:00:00 9.6 15 Este 30 Este 0 -- -- 76
2020-03-25 19:00:00 9.3 11 Este 34 Este 1.8 -- -- 79
2020-03-25 18:00:00 13 14 Nordeste 36 Nordeste 0 -- -- 58
2020-03-25 17:00:00 16.2 11 Oeste 29 Norte 0 -- -- 43
2020-03-25 16:00:00 14.4 12 Nordeste 28 Nordeste 0 -- -- 46
2020-03-25 15:00:00 14.2 10 Sudoeste 28 Noroeste 0 -- -- 49
2020-03-25 14:00:00 13.5 6 Oeste 19 Oeste 0 -- -- 57
2020-03-25 13:00:00 11.7 5 Sudeste 23 Oeste 0 -- -- 69
2020-03-25 12:00:00 12.3 11 Sudoeste 21 Sudoeste 0 -- -- 70
2020-03-25 11:00:00 10.7 7 Sudoeste 13 Sudoeste 0 -- -- 72
2020-03-25 10:00:00 8.1 0 Calma 4 Sudoeste 0 -- -- 78
2020-03-25 09:00:00 7 0 Calma 4 Sur 0 -- -- 85
2020-03-25 08:00:00 6.3 3 Este 12 Sudeste 0 -- -- 87
2020-03-25 07:00:00 4.9 8 Este 14 Este 0 -- -- 87
2020-03-25 06:00:00 4.9 8 Este 14 Este 0 -- -- 87
2020-03-25 05:00:00 5.1 8 Este 14 Sudeste 0 -- -- 87
2020-03-25 04:00:00 5.1 9 Este 14 Sudeste 0 -- -- 88
2020-03-25 03:00:00 5.2 8 Este 11 Este 0 -- -- 87
2020-03-25 02:00:00 6 9 Sudeste 12 Sudeste 0 -- -- 85
2020-03-25 01:00:00 6.4 9 Sudeste 13 Este 0 -- -- 82
2020-03-25 00:00:00 7.3 10 Sudeste 15 Este 0 -- -- 79
2020-03-24 23:00:00 9.4 10 Este 25 Nordeste 0 -- -- 66
2020-03-24 22:00:00 9.9 14 Nordeste 27 Nordeste 0 -- -- 66
2020-03-24 21:00:00 10.7 16 Este 26 Este 0 -- -- 62
2020-03-24 20:00:00 10.9 12 Este 20 Nordeste 0 -- -- 61
2020-03-24 19:00:00 12.1 9 Nordeste 20 Norte 0 -- -- 57
2020-03-24 18:00:00 13 7 Nordeste 26 Norte 0 -- -- 54
2020-03-24 17:00:00 14 8 Nordeste 22 Este 0 -- -- 53
2020-03-24 16:00:00 14 9 Nordeste 20 Nordeste 0 -- -- 50
2020-03-24 15:00:00 13.8 10 Norte 21 Norte 0 -- -- 53
2020-03-24 14:00:00 12.6 4 Este 26 Nordeste 0 -- -- 57
2020-03-24 13:00:00 11.4 18 Nordeste 29 Nordeste 0 -- -- 62
2020-03-24 12:00:00 12.4 14 Norte 30 Norte 0 -- -- 65
2020-03-24 11:00:00 10 17 Norte 38 Norte 0 -- -- 65
2020-03-24 10:00:00 8.5 14 Nordeste 27 Nordeste 0 -- -- 76
2020-03-24 09:00:00 7.5 15 Este 25 Este 0.2 -- -- 81
2020-03-24 08:00:00 7.8 17 Este 30 Este 0 -- -- 76
2020-03-24 07:00:00 7.8 17 Este 31 Este 0 -- -- 74
2020-03-24 06:00:00 7.9 15 Este 28 Este 0 -- -- 72
2020-03-24 05:00:00 8.1 15 Este 28 Este 0 -- -- 72
2020-03-24 04:00:00 8.5 12 Nordeste 30 Este 0 -- -- 73
2020-03-24 03:00:00 9.1 12 Nordeste 31 Nordeste 0 -- -- 68
2020-03-24 02:00:00 9.3 13 Nordeste 24 Nordeste 0 -- -- 68
2020-03-24 01:00:00 9.5 12 Este 22 Nordeste 0 -- -- 65
2020-03-24 00:00:00 9.3 14 Este 28 Este 0 -- -- 65
2020-03-23 23:00:00 8.9 17 Este 26 Este 0 -- -- 65
2020-03-23 22:00:00 9.3 10 Nordeste 21 Nordeste 0 -- -- 64
2020-03-23 21:00:00 9.5 12 Este 23 Nordeste 0 -- -- 60
2020-03-23 20:00:00 9.4 13 Nordeste 22 Este 0 -- -- 60
2020-03-23 19:00:00 12.2 12 Este 28 Nordeste 0 -- -- 44
2020-03-23 18:00:00 12.9 13 Este 32 Este 0 -- -- 40
2020-03-23 17:00:00 13.3 17 Nordeste 32 Norte 0 -- -- 43
2020-03-23 16:00:00 11.6 15 Nordeste 33 Nordeste 0 -- -- 62
2020-03-23 15:00:00 11 9 Oeste 31 Sudoeste 0 -- -- 65
2020-03-23 14:00:00 12.8 18 Sudoeste 33 Sudoeste 0 -- -- 64
2020-03-23 13:00:00 11.2 15 Nordeste 30 Nordeste 0 -- -- 61
2020-03-23 12:00:00 11.5 14 Nordeste 29 Norte 0 -- -- 62
2020-03-23 11:00:00 9.7 13 Nordeste 27 Nordeste 0 -- -- 68
2020-03-23 10:00:00 7.9 12 Este 22 Este 0 -- -- 75
2020-03-23 09:00:00 7.4 13 Este 24 Este 0 -- -- 76
2020-03-23 08:00:00 6.8 12 Este 18 Este 0 -- -- 77
2020-03-23 07:00:00 6.4 6 Este 25 Este 0 -- -- 79
2020-03-23 06:00:00 6.6 16 Este 24 Este 0 -- -- 78
2020-03-23 05:00:00 6.6 12 Este 22 Este 0 -- -- 79
2020-03-23 04:00:00 7 14 Este 23 Este 0 -- -- 78
2020-03-23 03:00:00 7.4 15 Este 27 Este 0 -- -- 76
2020-03-23 02:00:00 7.4 13 Este 23 Este 0 -- -- 76
2020-03-23 01:00:00 6.7 11 Este 19 Nordeste 0 -- -- 80
2020-03-23 00:00:00 7.6 15 Este 21 Este 0 -- -- 78
2020-03-22 23:00:00 7.4 14 Este 22 Este 0 -- -- 85
2020-03-22 22:00:00 7.4 15 Este 21 Este 0 -- -- 81
2020-03-22 21:00:00 7.5 12 Este 21 Este 0 -- -- 82
2020-03-22 20:00:00 7.5 10 Este 17 Este 0.2 -- -- 85
2020-03-22 19:00:00 7.4 2 Oeste 7 Sudoeste 0 -- -- 88
2020-03-22 18:00:00 7.3 3 Sur 18 Este 0.6 -- -- 86
2020-03-22 17:00:00 7 7 Nordeste 18 Sudoeste 3.8 -- -- 85
2020-03-22 16:00:00 9.9 13 Sudoeste 27 Sudoeste 0 -- -- 74
2020-03-22 15:00:00 12 13 Sudoeste 22 Sudoeste 0 -- -- 65
2020-03-22 14:00:00 10.6 14 Sudoeste 28 Sudoeste 0 -- -- 69
2020-03-22 13:00:00 11.3 10 Este 23 Este 0 -- -- 55
2020-03-22 12:00:00 10.6 10 Nordeste 23 Nordeste 0 -- -- 57
2020-03-22 11:00:00 9.3 14 Nordeste 28 Este 0 -- -- 63
2020-03-22 10:00:00 7.7 15 Este 28 Este 0 -- -- 66
2020-03-22 09:00:00 5.1 17 Este 32 Este 0 -- -- 74
2020-03-22 08:00:00 4.1 18 Este 32 Este 0 -- -- 76
2020-03-22 07:00:00 4.4 20 Este 31 Este 0 -- -- 74
2020-03-22 06:00:00 4.7 14 Este 26 Este 0 -- -- 73
2020-03-22 05:00:00 4.9 17 Este 24 Este 0 -- -- 72
2020-03-22 04:00:00 4.5 15 Este 24 Este 0 -- -- 75
2020-03-22 03:00:00 4.6 15 Este 27 Nordeste 0 -- -- 76
2020-03-22 02:00:00 3.6 20 Nordeste 28 Nordeste 0 -- -- 82
2020-03-22 01:00:00 4.4 16 Nordeste 23 Nordeste 0 -- -- 82
2020-03-22 00:00:00 3.4 7 Este 12 Sudeste 0 -- -- 87
2020-03-21 23:00:00 3.9 5 Este 15 Nordeste 0 -- -- 86
2020-03-21 22:00:00 5 9 Nordeste 20 Este 0 -- -- 81
2020-03-21 21:00:00 4.3 5 Este 11 Sudeste 0 -- -- 82
2020-03-21 20:00:00 5.7 8 Sudeste 10 Sudeste 0 -- -- 78
2020-03-21 19:00:00 9.7 4 Sudoeste 12 Sudoeste 0 -- -- 67
2020-03-21 18:00:00 9.3 8 Sudoeste 14 Oeste 0 -- -- 70
2020-03-21 17:00:00 7.4 5 Sudoeste 19 Sudoeste 0 -- -- 78
2020-03-21 16:00:00 7.3 10 Sudoeste 24 Sudoeste 0 -- -- 81
2020-03-21 15:00:00 6.9 10 Sudoeste 18 Oeste 0 -- -- 84
2020-03-21 14:00:00 6.7 10 Sudoeste 18 Sudoeste 0 -- -- 88
2020-03-21 13:00:00 6.6 8 Oeste 12 Oeste 0 -- -- 91
2020-03-21 12:00:00 5.6 6 Sudoeste 11 Sudoeste 0.4 -- -- 90
2020-03-21 11:00:00 4.6 5 Sudeste 17 Oeste 0.6 -- -- 89
2020-03-21 10:00:00 4.3 12 Oeste 38 Sudoeste 1 -- -- 94
2020-03-21 09:00:00 6.4 5 Oeste 13 Sudeste 0.8 -- -- 96
2020-03-21 08:00:00 6 5 Sudoeste 28 Oeste 3 -- -- 96
2020-03-21 07:00:00 6.9 9 Sudoeste 23 Sudoeste 2.2 -- -- 94
2020-03-21 06:00:00 7.3 10 Sudeste 25 Sudeste 0.8 -- -- 93
2020-03-21 05:00:00 6.9 4 Sudoeste 18 Sudoeste 1.6 -- -- 94
2020-03-21 04:00:00 7.5 8 Sudoeste 16 Sudoeste 1.6 -- -- 92
2020-03-21 03:00:00 8.6 6 Sur 19 Sur 2.4 -- -- 88
2020-03-21 02:00:00 10 14 Sudoeste 42 Sudoeste 1.6 -- -- 78
2020-03-21 01:00:00 11.3 9 Este 30 Este 0 -- -- 70
2020-03-21 00:00:00 10 6 Sudeste 26 Nordeste 0 -- -- 77
2020-03-20 23:00:00 9.8 17 Este 26 Este 0 -- -- 80
2020-03-20 22:00:00 9.1 10 Nordeste 24 Sudoeste 1.8 -- -- 86
2020-03-20 21:00:00 9 9 Este 27 Nordeste 2.6 -- -- 88
2020-03-20 20:00:00 9.9 18 Nordeste 36 Este 0 -- -- 78
2020-03-20 19:00:00 9.7 17 Este 27 Este 0 -- -- 79
2020-03-20 18:00:00 11.2 14 Este 30 Este 0 -- -- 68
2020-03-20 17:00:00 11.6 5 Sudeste 17 Nordeste 0 -- -- 72
2020-03-20 16:00:00 10 4 Nordeste 21 Sudoeste 0 -- -- 81
2020-03-20 15:00:00 10 12 Sudoeste 22 Sudoeste 0 -- -- 81
2020-03-20 14:00:00 11 4 Este 19 Este 0 -- -- 76
2020-03-20 13:00:00 8.8 0 Calma 15 Sudoeste 0 -- -- 85
2020-03-20 12:00:00 9 4 Sudoeste 24 Sudoeste 0 -- -- 85
2020-03-20 11:00:00 10.7 8 Sudoeste 15 Sudoeste 0 -- -- 79
2020-03-20 10:00:00 9.4 2 Nordeste 15 Este 0.2 -- -- 82
2020-03-20 09:00:00 8.9 3 Sur 8 Este 0 -- -- 79
2020-03-20 08:00:00 8.4 3 Este 21 Nordeste 0 -- -- 79
2020-03-20 07:00:00 8.8 15 Nordeste 30 Nordeste 0 -- -- 73
2020-03-20 06:00:00 8.7 15 Nordeste 27 Nordeste 0 -- -- 73
2020-03-20 05:00:00 8.5 11 Nordeste 27 Nordeste 0 -- -- 74
2020-03-20 04:00:00 8.8 10 Nordeste 21 Nordeste 0 -- -- 74
2020-03-20 03:00:00 9 11 Nordeste 17 Nordeste 0 -- -- 72
2020-03-20 02:00:00 8.6 6 Nordeste 14 Este 0 -- -- 76
2020-03-20 01:00:00 10.2 10 Este 21 Nordeste 0 -- -- 67
2020-03-20 00:00:00 10 13 Nordeste 20 Nordeste 0 -- -- 68
2020-03-19 23:00:00 9 4 Este 10 Nordeste 0 -- -- 74
2020-03-19 22:00:00 9.2 4 Este 12 Este 0 -- -- 73
2020-03-19 21:00:00 9 5 Este 12 Sudeste 0 -- -- 77
2020-03-19 20:00:00 9.1 6 Sudeste 10 Sudeste 0 -- -- 78
2020-03-19 19:00:00 10.6 3 Sudeste 10 Sudoeste 0 -- -- 75
2020-03-19 18:00:00 11.7 9 Sudoeste 13 Sudoeste 0 -- -- 68
2020-03-19 17:00:00 12.8 0 Calma 5 Oeste 0 -- -- 62
2020-03-19 16:00:00 12.7 4 Oeste 12 Sudoeste 0 -- -- 61
2020-03-19 15:00:00 13.1 6 Oeste 14 Sudoeste 0 -- -- 60
2020-03-19 14:00:00 13.4 2 Oeste 9 Sudoeste 0 -- -- 59
2020-03-19 13:00:00 12.7 6 Oeste 13 Sudoeste 0 -- -- 61
2020-03-19 12:00:00 12.6 3 Oeste 9 Oeste 0 -- -- 65
2020-03-19 11:00:00 12 3 Oeste 9 Sudoeste 0 -- -- 66
2020-03-19 10:00:00 11.1 0 Calma 18 Oeste 0 -- -- 69
2020-03-19 09:00:00 11.5 13 Nordeste 25 Nordeste 0 -- -- 63
2020-03-19 08:00:00 10.7 13 Este 24 Este 0 -- -- 63
2020-03-19 07:00:00 8.5 6 Este 11 Este 0 -- -- 76
2020-03-19 06:00:00 9.1 6 Sudeste 12 Sudeste 0 -- -- 72
2020-03-19 05:00:00 9.5 6 Este 13 Este 0 -- -- 69
2020-03-19 04:00:00 10.9 2 Sudoeste 28 Este 0 -- -- 63
2020-03-19 03:00:00 12.5 19 Este 27 Este 0 -- -- 55
2020-03-19 02:00:00 12.9 18 Este 24 Este 0 -- -- 52
2020-03-19 01:00:00 11.7 9 Este 19 Este 0 -- -- 57
2020-03-19 00:00:00 12.7 11 Este 37 Este 0 -- -- 55
2020-03-18 23:00:00 12.6 15 Este 34 Este 0 -- -- 57
2020-03-18 22:00:00 12.4 23 Este 36 Este 0 -- -- 59
2020-03-18 21:00:00 13.3 16 Este 33 Este 0 -- -- 56
2020-03-18 20:00:00 13.6 18 Nordeste 27 Este 0 -- -- 54
2020-03-18 19:00:00 14.9 15 Este 21 Este 0 -- -- 50
2020-03-18 18:00:00 15.9 12 Este 23 Nordeste 0 -- -- 47
2020-03-18 17:00:00 17.1 12 Nordeste 22 Norte 0 -- -- 43
2020-03-18 16:00:00 18.5 5 Norte 24 Nordeste 0 -- -- 39
2020-03-18 15:00:00 17.7 9 Este 19 Este 0 -- -- 38
2020-03-18 14:00:00 17.5 6 Norte 25 Nordeste 0 -- -- 42
2020-03-18 13:00:00 17.1 4 Sudoeste 19 Noroeste 0 -- -- 35
2020-03-18 12:00:00 14.1 7 Oeste 35 Este 0 -- -- 50
2020-03-18 11:00:00 14.1 19 Este 32 Este 0 -- -- 42
2020-03-18 10:00:00 13.2 21 Este 37 Este 0 -- -- 42
2020-03-18 09:00:00 11.9 23 Este 40 Este 0 -- -- 45
2020-03-18 08:00:00 12.2 17 Nordeste 30 Norte 0 -- -- 43
2020-03-18 07:00:00 12.2 13 Nordeste 46 Este 0 -- -- 38
2020-03-18 06:00:00 11.7 23 Este 40 Este 0 -- -- 50
2020-03-18 05:00:00 10.6 30 Este 42 Este 0 -- -- 66
2020-03-18 04:00:00 10.5 25 Este 34 Este 0 -- -- 68
2020-03-18 03:00:00 10.1 23 Este 39 Este 0 -- -- 70
2020-03-18 02:00:00 10.4 25 Este 42 Este 0 -- -- 69
2020-03-18 01:00:00 11.2 23 Este 36 Este 0 -- -- 64
2020-03-18 00:00:00 11.2 22 Este 32 Este 0 -- -- 65
2020-03-17 23:00:00 12.1 11 Nordeste 29 Norte 0 -- -- 61
2020-03-17 22:00:00 11.8 13 Norte 25 Norte 0 -- -- 65
2020-03-17 21:00:00 11.2 17 Nordeste 23 Nordeste 0 -- -- 65
2020-03-17 20:00:00 11.6 13 Nordeste 23 Nordeste 0 -- -- 64
2020-03-17 19:00:00 11.8 11 Este 28 Nordeste 0 -- -- 59
2020-03-17 18:00:00 13.1 10 Norte 36 Nordeste 0 -- -- 54
2020-03-17 17:00:00 12.9 19 Nordeste 35 Nordeste 0 -- -- 53
2020-03-17 16:00:00 13.1 19 Nordeste 36 Norte 0 -- -- 51
2020-03-17 15:00:00 12.9 26 Norte 43 Norte 0 -- -- 51
2020-03-17 14:00:00 12.6 16 Norte 37 Nordeste 0 -- -- 52
2020-03-17 13:00:00 11.2 20 Nordeste 50 Nordeste 0 -- -- 56
2020-03-17 12:00:00 10 23 Norte 44 Nordeste 0 -- -- 60
2020-03-17 11:00:00 8.9 20 Este 42 Este 0 -- -- 56
2020-03-17 10:00:00 4.6 20 Este 38 Este 0 -- -- 72
2020-03-17 09:00:00 2.6 21 Este 36 Este 0 -- -- 77
2020-03-17 08:00:00 2.1 27 Este 39 Este 0 -- -- 76
2020-03-17 07:00:00 1.2 26 Este 54 Este 0 -- -- 78
2020-03-17 06:00:00 1.8 32 Este 50 Este 0 -- -- 77
2020-03-17 05:00:00 1.7 25 Este 39 Sudeste 0 -- -- 76
2020-03-17 04:00:00 1.3 19 Este 32 Este 0 -- -- 78
2020-03-17 03:00:00 1.3 21 Este 34 Este 0 -- -- 78
2020-03-17 02:00:00 1.4 20 Este 33 Este 0 -- -- 78
2020-03-17 01:00:00 1.8 18 Este 28 Este 0 -- -- 81
2020-03-17 00:00:00 1.7 17 Este 28 Nordeste 0 -- -- 86
2020-03-16 23:00:00 2 13 Este 30 Este 1 -- -- 89
2020-03-16 22:00:00 1.6 14 Este 28 Nordeste 1.8 -- -- 91
2020-03-16 21:00:00 1.9 12 Este 25 Este 1.2 -- -- 89
2020-03-16 20:00:00 1.8 13 Este 33 Este 2.4 -- -- 89
2020-03-16 19:00:00 2.1 19 Este 37 Nordeste 0.8 -- -- 89
2020-03-16 18:00:00 2.3 20 Este 47 Sudeste 1.4 -- -- 86
2020-03-16 17:00:00 1.9 26 Este 50 Este 3.2 -- -- 86
2020-03-16 16:00:00 1.9 25 Este 49 Este 3 -- -- 85
2020-03-16 15:00:00 1.7 27 Este 49 Nordeste 2 -- -- 87
2020-03-16 14:00:00 1.2 24 Este 45 Este 1.4 -- -- 88
2020-03-16 13:00:00 1.6 21 Este 45 Este 1.4 -- -- 84
2020-03-16 12:00:00 1.1 17 Este 46 Este 0.6 -- -- 87
2020-03-16 11:00:00 1 27 Este 49 Este 0.8 -- -- 87
2020-03-16 10:00:00 1.7 24 Este 44 Nordeste 0.6 -- -- 80
2020-03-16 09:00:00 1.7 17 Nordeste 41 Nordeste 0.4 -- -- 78
2020-03-16 08:00:00 1.5 21 Este 42 Este 0.2 -- -- 79
2020-03-16 07:00:00 1.5 17 Nordeste 30 Este 0 -- -- 77
2020-03-16 06:00:00 1.2 18 Este 37 Este 0.2 -- -- 80
2020-03-16 05:00:00 1.3 22 Este 37 Este 0 -- -- 80
2020-03-16 04:00:00 2 17 Este 31 Este 0 -- -- 71
2020-03-16 03:00:00 1.7 19 Este 44 Este 0 -- -- 72
2020-03-16 02:00:00 1.8 26 Este 43 Este 0 -- -- 74
2020-03-16 01:00:00 1.9 16 Este 40 Nordeste 1 -- -- 82
2020-03-16 00:00:00 3.5 25 Nordeste 56 Nordeste 0.4 -- -- 72
2020-03-15 23:00:00 6.8 11 Oeste 18 Noroeste 0 -- -- 76
2020-03-15 22:00:00 7.6 7 Sur 22 Sudoeste 0 -- -- 72
2020-03-15 21:00:00 8.6 10 Sudoeste 35 Sudoeste 0 -- -- 66
2020-03-15 20:00:00 10.1 18 Sudoeste 48 Sudoeste 0 -- -- 64
2020-03-15 19:00:00 12.1 31 Sudoeste 52 Oeste 0 -- -- 66
2020-03-15 18:00:00 13.3 33 Sudoeste 58 Sudoeste 0 -- -- 68
2020-03-15 17:00:00 14.2 27 Sudoeste 51 Sudoeste 0 -- -- 60
2020-03-15 16:00:00 15.3 30 Sudoeste 49 Sudoeste 0 -- -- 57
2020-03-15 15:00:00 15.1 31 Sudoeste 44 Oeste 0 -- -- 63
2020-03-15 14:00:00 14.7 28 Sudoeste 43 Sudoeste 0 -- -- 69
2020-03-15 13:00:00 14.1 26 Sudoeste 35 Sudoeste 0 -- -- 73
2020-03-15 12:00:00 14.2 17 Sudoeste 33 Sudoeste 0 -- -- 69
2020-03-15 11:00:00 14.2 17 Sudoeste 25 Oeste 0 -- -- 63
2020-03-15 10:00:00 13 11 Sudoeste 15 Sudoeste 0 -- -- 61
2020-03-15 09:00:00 10.3 0 Calma 9 Sudeste 0 -- -- 69
2020-03-15 08:00:00 8.7 4 Este 9 Sudeste 0 -- -- 75
2020-03-15 07:00:00 10.2 4 Este 10 Sudeste 0 -- -- 68
2020-03-15 06:00:00 10.2 2 Este 10 Sudeste 0 -- -- 68
2020-03-15 05:00:00 10 10 Sudeste 15 Este 0 -- -- 62
2020-03-15 04:00:00 10 10 Este 20 Nordeste 0 -- -- 58
2020-03-15 03:00:00 10.5 11 Este 38 Nordeste 0 -- -- 54
2020-03-15 02:00:00 11.5 25 Nordeste 32 Nordeste 0 -- -- 47
2020-03-15 01:00:00 11.1 24 Nordeste 43 Nordeste 0 -- -- 49
2020-03-15 00:00:00 11.4 18 Nordeste 27 Nordeste 0 -- -- 49
2020-03-14 23:00:00 12.5 11 Este 22 Nordeste 0 -- -- 47
2020-03-14 22:00:00 13.1 13 Este 27 Este 0 -- -- 45
2020-03-14 21:00:00 13.6 17 Este 26 Nordeste 0 -- -- 45
2020-03-14 20:00:00 13.7 6 Este 10 Norte 0 -- -- 64
2020-03-14 19:00:00 17.8 8 Oeste 21 Oeste 0 -- -- 53
2020-03-14 18:00:00 19.1 14 Sudoeste 24 Sudoeste 0 -- -- 50
2020-03-14 17:00:00 19.6 14 Sudoeste 26 Sudoeste 0 -- -- 51
2020-03-14 16:00:00 19.3 15 Sudoeste 29 Oeste 0 -- -- 51
2020-03-14 15:00:00 18.5 19 Sudoeste 29 Sudoeste 0 -- -- 52
2020-03-14 14:00:00 19 18 Sudoeste 25 Sudoeste 0 -- -- 48
2020-03-14 13:00:00 18.1 13 Sudoeste 18 Sudoeste 0 -- -- 45
2020-03-14 12:00:00 16.6 13 Sudoeste 19 Sudoeste 0 -- -- 49
2020-03-14 11:00:00 16 6 Sudeste 29 Nordeste 0 -- -- 47
2020-03-14 10:00:00 12.7 21 Nordeste 37 Este 0 -- -- 62
2020-03-14 09:00:00 10.1 28 Nordeste 43 Este 0 -- -- 70
2020-03-14 08:00:00 9.2 29 Este 53 Este 0 -- -- 77
2020-03-14 07:00:00 9.1 27 Este 55 Este 0 -- -- 78
2020-03-14 06:00:00 10.8 24 Este 41 Este 0 -- -- 71
2020-03-14 05:00:00 9.2 18 Nordeste 38 Este 0 -- -- 80
2020-03-14 04:00:00 11.3 21 Este 35 Este 0 -- -- 74
2020-03-14 03:00:00 10.6 23 Este 38 Este 0 -- -- 77
2020-03-14 02:00:00 10.5 18 Este 33 Nordeste 0 -- -- 78
2020-03-14 01:00:00 9.4 23 Nordeste 39 Este 0 -- -- 82
2020-03-14 00:00:00 11.3 26 Este 39 Este 0 -- -- 76
2020-03-13 23:00:00 12.3 22 Este 34 Este 0 -- -- 73
2020-03-13 22:00:00 12.3 19 Este 32 Nordeste 0 -- -- 73
2020-03-13 21:00:00 12.8 18 Este 32 Nordeste 0 -- -- 72
2020-03-13 20:00:00 13.2 18 Nordeste 31 Nordeste 0 -- -- 72
2020-03-13 19:00:00 13.9 19 Nordeste 34 Nordeste 0 -- -- 70
2020-03-13 18:00:00 15.5 20 Nordeste 36 Nordeste 0 -- -- 65
2020-03-13 17:00:00 16.8 22 Nordeste 32 Nordeste 0 -- -- 58
2020-03-13 16:00:00 17 16 Nordeste 24 Nordeste 0 -- -- 61
2020-03-13 15:00:00 17.5 14 Nordeste 27 Norte 0 -- -- 59
2020-03-13 14:00:00 16.9 9 Sudoeste 21 Sudoeste 0 -- -- 68
2020-03-13 13:00:00 17 13 Sudoeste 20 Sudoeste 0 -- -- 60
2020-03-13 12:00:00 16.2 12 Sudoeste 33 Nordeste 0 -- -- 57
2020-03-13 11:00:00 15.3 21 Nordeste 47 Nordeste 0 -- -- 59
2020-03-13 10:00:00 12.8 26 Nordeste 40 Nordeste 0 -- -- 63
2020-03-13 09:00:00 11.7 19 Nordeste 53 Nordeste 0 -- -- 67
2020-03-13 08:00:00 10.4 25 Nordeste 40 Nordeste 0 -- -- 72
2020-03-13 07:00:00 13 16 Este 31 Este 0 -- -- 63
2020-03-13 06:00:00 12.6 17 Este 30 Nordeste 0 -- -- 65
2020-03-13 05:00:00 11.5 22 Nordeste 41 Nordeste 0 -- -- 69
2020-03-13 04:00:00 12.3 20 Nordeste 28 Nordeste 0 -- -- 67
2020-03-13 03:00:00 13.1 18 Nordeste 23 Nordeste 0 -- -- 64
2020-03-13 02:00:00 14.4 14 Este 27 Este 0 -- -- 61
2020-03-13 01:00:00 15 18 Este 28 Este 0 -- -- 59
2020-03-13 00:00:00 15.1 17 Este 27 Este 0 -- -- 56
2020-03-12 23:00:00 15.2 14 Este 23 Nordeste 0 -- -- 57
2020-03-12 22:00:00 13.8 6 Sudeste 11 Este 0 -- -- 65
2020-03-12 21:00:00 14.2 5 Este 10 Nordeste 0 -- -- 63
2020-03-12 20:00:00 15.6 6 Este 19 Sudoeste 0 -- -- 59
2020-03-12 19:00:00 17.8 13 Sudoeste 30 Sudoeste 0 -- -- 50
2020-03-12 18:00:00 20 21 Sudoeste 32 Oeste 0 -- -- 44
2020-03-12 17:00:00 22.4 23 Sudoeste 36 Oeste 0 -- -- 33
2020-03-12 16:00:00 22.6 24 Oeste 39 Sudoeste 0 -- -- 30
2020-03-12 15:00:00 22.7 22 Oeste 35 Oeste 0 -- -- 30
2020-03-12 14:00:00 22.8 21 Oeste 38 Oeste 0 -- -- 36
2020-03-12 13:00:00 22.3 23 Oeste 35 Sudoeste 0 -- -- 37
2020-03-12 12:00:00 21.7 19 Sudoeste 32 Oeste 0 -- -- 36
2020-03-12 11:00:00 20.4 17 Oeste 28 Sudoeste 0 -- -- 38
2020-03-12 10:00:00 17.2 5 Sudoeste 14 Sudoeste 0 -- -- 47
2020-03-12 09:00:00 15.6 4 Sudeste 14 Sur 0 -- -- 45
2020-03-12 08:00:00 15.5 2 Norte 10 Sur 0 -- -- 43
2020-03-12 07:00:00 16.3 3 Sudoeste 22 Oeste 0 -- -- 40
2020-03-12 06:00:00 15.7 2 Sudoeste 12 Sudeste 0 -- -- 41
2020-03-12 05:00:00 16.5 4 Sur 15 Sudeste 0 -- -- 40
2020-03-12 04:00:00 17.2 7 Sudoeste 13 Sur 0 -- -- 39
2020-03-12 03:00:00 17 6 Sur 13 Sur 0 -- -- 37
2020-03-12 02:00:00 17.1 6 Sudeste 13 Sudeste 0 -- -- 35
2020-03-12 01:00:00 17 4 Sudeste 13 Sudeste 0 -- -- 34
2020-03-12 00:00:00 16.5 5 Sudeste 13 Este 0 -- -- 35
2020-03-11 23:00:00 16.2 8 Sudeste 13 Sudeste 0 -- -- 39
2020-03-11 22:00:00 15.3 5 Este 12 Sudeste 0 -- -- 41
2020-03-11 21:00:00 15.7 6 Este 12 Sudeste 0 -- -- 47
2020-03-11 20:00:00 15.8 6 Sudeste 10 Sudeste 0 -- -- 52
2020-03-11 19:00:00 18.1 5 Sudeste 12 Sudoeste 0 -- -- 53
2020-03-11 18:00:00 20 9 Sudoeste 22 Oeste 0 -- -- 47
2020-03-11 17:00:00 20.6 14 Sudoeste 25 Sudoeste 0 -- -- 46
2020-03-11 16:00:00 21.7 17 Sudoeste 27 Oeste 0 -- -- 44
2020-03-11 15:00:00 22.3 15 Sudoeste 22 Sudoeste 0 -- -- 41
2020-03-11 14:00:00 21.8 10 Sudoeste 16 Sudoeste 0 -- -- 39
2020-03-11 13:00:00 21.5 7 Sudoeste 12 Sudoeste 0 -- -- 41
2020-03-11 12:00:00 20.2 8 Sudoeste 10 Sudoeste 0 -- -- 40
2020-03-11 11:00:00 19.5 2 Sudoeste 5 Sudoeste 0 -- -- 41
2020-03-11 10:00:00 17.7 0 Calma 15 Este 0 -- -- 48
2020-03-11 09:00:00 14 9 Sudeste 14 Sudeste 0 -- -- 53
2020-03-11 08:00:00 13.5 9 Este 16 Nordeste 0 -- -- 53
2020-03-11 07:00:00 14.1 8 Este 16 Nordeste 0 -- -- 50
2020-03-11 06:00:00 13.7 9 Este 19 Nordeste 0 -- -- 54
2020-03-11 05:00:00 14.1 9 Este 21 Nordeste 0 -- -- 52
2020-03-11 04:00:00 14.4 11 Nordeste 21 Nordeste 0 -- -- 52
2020-03-11 03:00:00 14.3 10 Nordeste 29 Nordeste 0 -- -- 51
2020-03-11 02:00:00 15.6 13 Nordeste 27 Nordeste 0 -- -- 48
2020-03-11 01:00:00 15.3 16 Nordeste 26 Nordeste 0 -- -- 51
2020-03-11 00:00:00 17 15 Nordeste 27 Este 0 -- -- 48
2020-03-10 23:00:00 16.6 14 Nordeste 24 Este 0 -- -- 51
2020-03-10 22:00:00 13.6 6 Este 13 Este 0 -- -- 58
2020-03-10 21:00:00 12.9 9 Sudeste 13 Este 0 -- -- 63
2020-03-10 20:00:00 14.1 8 Sudeste 12 Sudeste 0 -- -- 60
2020-03-10 19:00:00 19 3 Sudoeste 17 Sudoeste 0 -- -- 45
2020-03-10 18:00:00 19.9 14 Sudoeste 19 Sudoeste 0 -- -- 45
2020-03-10 17:00:00 20.8 10 Sudoeste 14 Sudoeste 0 -- -- 46
2020-03-10 16:00:00 20 11 Sudoeste 16 Sudoeste 0 -- -- 45
2020-03-10 15:00:00 19.4 8 Sudoeste 19 Sudoeste 0 -- -- 46
2020-03-10 14:00:00 19.2 13 Sudoeste 22 Sudoeste 0 -- -- 47
2020-03-10 13:00:00 19.5 11 Sudoeste 15 Oeste 0 -- -- 45
2020-03-10 12:00:00 16.4 2 Sudoeste 12 Oeste 0 -- -- 48
2020-03-10 11:00:00 16.1 5 Sudoeste 13 Sudoeste 0 -- -- 51
2020-03-10 10:00:00 14.7 6 Sudoeste 30 Este 0 -- -- 50
2020-03-10 09:00:00 14 18 Este 38 Este 0 -- -- 47
2020-03-10 08:00:00 11.3 21 Este 37 Este 0 -- -- 51
2020-03-10 07:00:00 9.4 24 Nordeste 36 Nordeste 0 -- -- 58
2020-03-10 06:00:00 9.1 8 Este 12 Este 0 -- -- 59
2020-03-10 05:00:00 8.2 8 Este 12 Este 0 -- -- 63
2020-03-10 04:00:00 8.4 9 Este 13 Este 0 -- -- 63
2020-03-10 03:00:00 9.1 7 Este 12 Sudeste 0 -- -- 60
2020-03-10 02:00:00 11.9 9 Sur 41 Este 0 -- -- 49
2020-03-10 01:00:00 13 29 Este 46 Este 0 -- -- 46
2020-03-10 00:00:00 11.2 23 Este 38 Este 0 -- -- 47
2020-03-09 23:00:00 10.9 21 Este 44 Este 0 -- -- 45
2020-03-09 22:00:00 10.2 23 Este 37 Nordeste 0 -- -- 47
2020-03-09 21:00:00 10.4 19 Este 36 Este 0 -- -- 45
2020-03-09 20:00:00 11.5 18 Este 32 Este 0 -- -- 41
2020-03-09 19:00:00 13.1 18 Nordeste 32 Nordeste 0 -- -- 37
2020-03-09 18:00:00 14.6 22 Nordeste 42 Este 0 -- -- 35
2020-03-09 17:00:00 15.4 21 Este 43 Nordeste 0 -- -- 31
2020-03-09 16:00:00 15.5 23 Nordeste 47 Nordeste 0 -- -- 24
2020-03-09 15:00:00 15.4 24 Este 48 Nordeste 0 -- -- 23
2020-03-09 14:00:00 15.4 27 Nordeste 51 Nordeste 0 -- -- 24
2020-03-09 13:00:00 15.7 22 Este 42 Este 0 -- -- 25
2020-03-09 12:00:00 14.4 19 Este 54 Este 0 -- -- 34
2020-03-09 11:00:00 8.3 30 Este 61 Nordeste 0 -- -- 70
2020-03-09 10:00:00 5.4 40 Este 64 Nordeste 0 -- -- 78
2020-03-09 09:00:00 5 42 Nordeste 62 Nordeste 0 -- -- 75
2020-03-09 08:00:00 5.3 31 Nordeste 53 Nordeste 0 -- -- 76
2020-03-09 07:00:00 5.2 30 Nordeste 47 Nordeste 0 -- -- 77
2020-03-09 06:00:00 5.4 23 Nordeste 42 Nordeste 0 -- -- 79
2020-03-09 05:00:00 5.8 29 Nordeste 45 Nordeste 0 -- -- 73
2020-03-09 04:00:00 6.8 20 Nordeste 48 Este 0 -- -- 68
2020-03-09 03:00:00 5.9 21 Nordeste 43 Nordeste 0 -- -- 82
2020-03-09 02:00:00 6.4 25 Nordeste 43 Nordeste 0 -- -- 83
2020-03-09 01:00:00 7.1 18 Nordeste 42 Nordeste 0 -- -- 78
2020-03-09 00:00:00 7.3 23 Nordeste 37 Este 0 -- -- 77